Portada
METAR-TAF:

METAR-TAF

Aeroports :

Aeroport d'Auckland

Auckland, Nova Zelanda

latitud: 37-01S, longitud: 174-48E, altitud: 7 m

Observació

L'informe es va fer fa 28 minuts, a les 21:00 UTC
Vent 3 kt del Nord
Temperatura 10°C
Humitat 100%
Pressió 1023 hPa
Visibilitat 10 km o més

METAR: NZAA 252100Z AUTO 01003KT 9999 BKN050/// 10/10 Q1023 NOSIG

Hora: 09:28 (21:28 UTC)

Pronòstic

L'informe es va fer fa 4 hores i 21 minuts, a les 17:07 UTC
Pronòstic vàlid del 25 a les 18 UTC al 26 a les 18 UTC
Vent 2 kt amb direcció variable
Visibilitat 10 km o més
Núvols disperses a una alçada de 5000 ft
Temporalment
l' 25 a les 18 UTC al 25 a les 20 UTC
Visibilitat: 2000 m
boirina
Probabilitat 40%
l' 26 a les 12 UTC al 26 a les 18 UTC
Cel ennuvolat a una alçada de 1400 ft

TAF: NZAA 251707Z 2518/2618 VRB02KT 9999 SCT050 TEMPO 2518/2520 2000 BR PROB40 2612/2618 BKN014

Observacions i pronòstics meteorològics de més de 4000 aeroports (METAR i TAF).

Les estacions disponibles són els punts grocs i vermells al mapa.

Posi el ratolí al punt desitjat per veure el nom de l'estació.

Feu clic per veure les observacions i els pronòstics meteorològics.

Per canviar el mapa: feu clic els botons verds amb una creu de color negre per apropar; al botó verd amb un guió per allunyar la imatge; o en les fletxes verdes per a mapes adjacents.


METAR-TAF: